Pacific Pilot IV — CZ3537 — position and weather

sailwx.info

Track history (hours):
 
Tides and Currents Weather Stations Pressure Air Temp Water Temp Dewpoint Dewpoint Depression Visibility Wind Speed Wind Dir Waves Ship Positions

Pacific Pilot IV

Last reported at 2014-Aug-02 02:34 UTC. Time now 2014-Aug-02 02:51 UTC.
Position N 54°18' W 130°21'.

Length 20 m.

Type: Pilot. MMSI: 316006722.

Date/timePositionNaut miles runAvg speedWind from/ knotsBaromVisibWave heightAir tempDewpointWater temp
2014-Aug-02 02:34N 54°18' W 130°21'0 0.0
2014-Aug-02 01:33N 54°18' W 130°21'0 0.0
2014-Aug-02 00:34N 54°18' W 130°21'0 0.0
2014-Aug-01 23:33N 54°18' W 130°21'0 0.0
2014-Aug-01 22:33N 54°18' W 130°21'0 0.0
2014-Aug-01 21:33N 54°18' W 130°21'0 0.0
2014-Aug-01 20:34N 54°18' W 130°21'0 0.0
2014-Aug-01 19:34N 54°18' W 130°21'0 0.0
2014-Aug-01 18:34N 54°18' W 130°21'0 0.0
2014-Aug-01 17:33N 54°18' W 130°21'0 0.0
2014-Aug-01 16:33N 54°18' W 130°21'0 0.0
2014-Aug-01 15:33N 54°18' W 130°21'0 0.0
2014-Aug-01 14:34N 54°18' W 130°21'0 0.0
2014-Aug-01 13:33N 54°18' W 130°21'0 0.0
2014-Aug-01 12:33N 54°18' W 130°21'0 0.0
2014-Aug-01 11:33N 54°18' W 130°21'0 0.0
2014-Aug-01 10:34N 54°18' W 130°21'0 0.0
2014-Aug-01 09:33N 54°18' W 130°21'0 0.0
2014-Aug-01 08:33N 54°18' W 130°21'0 0.0
2014-Aug-01 07:33N 54°18' W 130°21'0 0.0
2014-Aug-01 06:33N 54°18' W 130°21'0 0.0
2014-Aug-01 05:33N 54°18' W 130°21'0 0.0
2014-Aug-01 04:33N 54°18' W 130°21'0 0.0
2014-Aug-01 03:33N 54°18' W 130°21'0 0.0
2014-Aug-01 02:33N 54°18' W 130°21'0 0.0
2014-Aug-01 01:33N 54°18' W 130°21'0 0.0
2014-Aug-01 00:33N 54°18' W 130°21'0 0.0
2014-Jul-31 23:33N 54°18' W 130°21'0 0.0
2014-Jul-31 22:34N 54°18' W 130°21'0 0.0
2014-Jul-31 21:33N 54°18' W 130°21'0 0.0
2014-Jul-31 20:33N 54°18' W 130°21'0 0.0
2014-Jul-31 19:33N 54°18' W 130°21'0 0.0
2014-Jul-31 18:33N 54°18' W 130°21'2 2.0
2014-Jul-31 17:33N 54°19' W 130°19'0 0.1
2014-Jul-31 16:33N 54°19' W 130°19'2 2.1
2014-Jul-31 15:33N 54°18' W 130°21'0 0.0
2014-Jul-31 14:33N 54°18' W 130°21'0 0.0
2014-Jul-31 13:33N 54°18' W 130°21'0 0.0
2014-Jul-31 12:34N 54°18' W 130°21'0 0.0
2014-Jul-31 11:33N 54°18' W 130°21'0 0.0
2014-Jul-31 10:33N 54°18' W 130°21'0 0.0
2014-Jul-31 09:33N 54°18' W 130°21'0 0.0
2014-Jul-31 08:33N 54°18' W 130°21'0 0.0
2014-Jul-31 07:34N 54°18' W 130°21'0 0.0
2014-Jul-31 06:33N 54°18' W 130°21'0 0.0
2014-Jul-31 05:33N 54°18' W 130°21'0 0.0
2014-Jul-31 04:33N 54°18' W 130°21'0 0.0
2014-Jul-31 03:33N 54°18' W 130°21'0 0.0
2014-Jul-31 02:33N 54°18' W 130°21'0 0.0
2014-Jul-31 01:33N 54°18' W 130°21'0 0.0
2014-Jul-31 00:34N 54°18' W 130°21'0 0.0
2014-Jul-30 23:33N 54°18' W 130°21'0 0.0
2014-Jul-30 22:33N 54°18' W 130°21'0 0.0
2014-Jul-30 21:33N 54°18' W 130°21'0 0.0
2014-Jul-30 20:33N 54°18' W 130°21'0 0.0
2014-Jul-30 19:33N 54°18' W 130°21'0 0.0
2014-Jul-30 18:33N 54°18' W 130°21'0 0.0
2014-Jul-30 03:32N 54°18' W 130°21'0 0.0
2014-Jul-30 02:33N 54°18' W 130°21'0 0.0
2014-Jul-30 01:33N 54°18' W 130°21'0 0.0
2014-Jul-30 00:33N 54°18' W 130°21'0 0.0
2014-Jul-29 23:34N 54°18' W 130°21'0 0.0
2014-Jul-29 18:11N 54°18' W 130°21'0 0.0
2014-Jul-29 17:33N 54°18' W 130°21'0 0.0
2014-Jul-29 16:33N 54°18' W 130°21'0 0.0
2014-Jul-29 15:33N 54°18' W 130°21'0 0.0
2014-Jul-29 14:33N 54°18' W 130°21'0 0.3
2014-Jul-29 13:33N 54°17' W 130°22'1913.4
2014-Jul-29 12:07N 54°19' W 130°55'611.4
2014-Jul-29 11:33N 54°19' W 130°44'2 1.9
2014-Jul-29 10:33N 54°18' W 130°41'6 5.9
2014-Jul-29 09:32N 54°12' W 130°46'0 0.0
2014-Jul-29 08:33N 54°12' W 130°46'0 0.0
2014-Jul-29 07:33N 54°12' W 130°46'6 2.9
2014-Jul-29 05:33N 54°16' W 130°38'10 9.9
2014-Jul-29 04:34N 54°18' W 130°21'0 0.0
2014-Jul-29 03:34N 54°18' W 130°21'0 0.0
2014-Jul-29 02:34N 54°18' W 130°21'0 0.0
2014-Jul-29 01:34N 54°18' W 130°21'0 0.0
2014-Jul-28 19:31N 54°18' W 130°21'0 0.0
2014-Jul-28 18:33N 54°18' W 130°21'0 0.0
2014-Jul-28 17:33N 54°18' W 130°21'0 0.0
2014-Jul-28 16:33N 54°18' W 130°21'0 0.0
2014-Jul-28 15:33N 54°18' W 130°21'0 0.0
2014-Jul-27 20:33N 54°18' W 130°21'0 0.0
2014-Jul-27 19:34N 54°18' W 130°21'0 0.0
2014-Jul-27 18:33N 54°18' W 130°21'0 0.0
2014-Jul-27 17:33N 54°18' W 130°21'0 0.0
2014-Jul-27 16:34N 54°18' W 130°21'0 0.0
2014-Jul-27 15:34N 54°18' W 130°21'0 0.0
2014-Jul-27 14:33N 54°18' W 130°21'0 0.0
2014-Jul-26 03:30N 54°18' W 130°21'0 0.0
2014-Jul-25 22:33N 54°18' W 130°21'0 0.0
2014-Jul-25 21:34N 54°18' W 130°21'0 0.0
2014-Jul-25 20:33N 54°18' W 130°21'0 0.0
2014-Jul-25 19:33N 54°18' W 130°21'0 0.0
2014-Jul-25 18:33N 54°18' W 130°21'0 0.0
2014-Jul-25 17:34N 54°18' W 130°21'0 0.0
2014-Jul-25 16:34N 54°18' W 130°21'0 0.0
2014-Jul-25 15:34N 54°18' W 130°21'0 0.0
2014-Jul-25 14:34N 54°18' W 130°21'0 0.0
2014-Jul-25 13:34N 54°18' W 130°21'0 0.0
2014-Jul-25 12:34N 54°18' W 130°21'0 0.0
2014-Jul-25 11:33N 54°18' W 130°21'0 0.0
2014-Jul-25 10:34N 54°18' W 130°21'0 0.0
2014-Jul-25 09:34N 54°18' W 130°21'0 0.0
2014-Jul-25 08:33N 54°18' W 130°21'0 0.0
2014-Jul-25 07:34N 54°18' W 130°21'0 0.0
2014-Jul-25 06:33N 54°18' W 130°21'0 0.0
2014-Jul-25 05:34N 54°18' W 130°21'0 0.0
2014-Jul-25 04:34N 54°18' W 130°21'0 0.0
2014-Jul-25 03:33N 54°18' W 130°21'0 0.0
2014-Jul-25 02:33N 54°18' W 130°21'0 0.0
2014-Jul-25 01:33N 54°18' W 130°21'0 0.0
2014-Jul-25 00:34N 54°18' W 130°21'0 0.0
2014-Jul-24 23:34N 54°18' W 130°21'0 0.0
2014-Jul-24 22:34N 54°18' W 130°21'0 0.0
2014-Jul-24 21:33N 54°18' W 130°21'0 0.0
2014-Jul-24 20:33N 54°18' W 130°21'0 0.0
2014-Jul-24 19:34N 54°18' W 130°21'0 0.0
2014-Jul-24 18:34N 54°18' W 130°21'0 0.0
2014-Jul-24 17:34N 54°18' W 130°21'0 0.0
2014-Jul-24 16:34N 54°18' W 130°21'0 0.0
2014-Jul-24 15:34N 54°18' W 130°21'0 0.0
2014-Jul-24 14:34N 54°18' W 130°21'0 0.0
2014-Jul-24 13:33N 54°18' W 130°21'0 0.0
2014-Jul-24 12:34N 54°18' W 130°21'0 0.0
2014-Jul-24 11:34N 54°18' W 130°21'0 0.0
2014-Jul-24 10:33N 54°18' W 130°21'0 0.0
2014-Jul-24 09:34N 54°18' W 130°21'0 0.0
2014-Jul-24 08:34N 54°18' W 130°21'0 0.0
2014-Jul-24 07:34N 54°18' W 130°21'0 0.0
2014-Jul-24 06:33N 54°18' W 130°21'0 0.0
2014-Jul-24 05:34N 54°18' W 130°21'0 0.0
2014-Jul-24 04:33N 54°18' W 130°21'0 0.0
2014-Jul-24 03:33N 54°18' W 130°21'0 0.0
2014-Jul-24 02:33N 54°18' W 130°21'0 0.0
2014-Jul-24 01:33N 54°18' W 130°21'0 0.0
2014-Jul-24 00:34N 54°18' W 130°21'0 0.0
2014-Jul-23 23:34N 54°18' W 130°21'0 0.0
2014-Jul-23 22:33N 54°18' W 130°21'0 0.0
2014-Jul-23 21:34N 54°18' W 130°21'0 0.0
2014-Jul-23 20:33N 54°18' W 130°21'0 0.0
2014-Jul-23 19:34N 54°18' W 130°21'0 0.0
2014-Jul-23 18:34N 54°18' W 130°21'0 0.0
2014-Jul-23 17:33N 54°18' W 130°21'0 0.0
2014-Jul-23 16:34N 54°18' W 130°21'0 0.0
2014-Jul-23 15:33N 54°18' W 130°21'0 0.0
2014-Jul-23 14:34N 54°18' W 130°21'0 0.0
2014-Jul-23 13:33N 54°18' W 130°21'0 0.0
2014-Jul-23 12:34N 54°18' W 130°21'0 0.0
2014-Jul-23 11:33N 54°18' W 130°21'0 0.0
2014-Jul-23 10:33N 54°18' W 130°21'0 0.0
2014-Jul-23 09:33N 54°18' W 130°21'0 0.0
2014-Jul-23 08:34N 54°18' W 130°21'0 0.0
2014-Jul-23 07:34N 54°18' W 130°21'0 0.0
2014-Jul-23 06:33N 54°18' W 130°21'0 0.0
2014-Jul-23 05:34N 54°18' W 130°21'0 0.0
2014-Jul-23 04:33N 54°18' W 130°21'0 0.0
2014-Jul-23 03:34N 54°18' W 130°21'0 0.0
2014-Jul-23 02:34N 54°18' W 130°21'  
Track history (hours):
 
Tides and Currents Weather Stations Pressure Air Temp Water Temp Dewpoint Dewpoint Depression Visibility Wind Speed Wind Dir Waves Ship Positions

Pacific Pilot IV

Last reported at 2014-Aug-02 02:34 UTC. Time now 2014-Aug-02 02:51 UTC.
Position N 54°18' W 130°21'.

Length 20 m.

Type: Pilot. MMSI: 316006722.

Date/timePositionNaut miles runAvg speedWind from/ knotsBaromVisibWave heightAir tempDewpointWater temp
2014-Aug-02 02:34N 54°18' W 130°21'0 0.0
2014-Aug-02 01:33N 54°18' W 130°21'0 0.0
2014-Aug-02 00:34N 54°18' W 130°21'0 0.0
2014-Aug-01 23:33N 54°18' W 130°21'0 0.0
2014-Aug-01 22:33N 54°18' W 130°21'0 0.0
2014-Aug-01 21:33N 54°18' W 130°21'0 0.0
2014-Aug-01 20:34N 54°18' W 130°21'0 0.0
2014-Aug-01 19:34N 54°18' W 130°21'0 0.0
2014-Aug-01 18:34N 54°18' W 130°21'0 0.0
2014-Aug-01 17:33N 54°18' W 130°21'0 0.0
2014-Aug-01 16:33N 54°18' W 130°21'0 0.0
2014-Aug-01 15:33N 54°18' W 130°21'0 0.0
2014-Aug-01 14:34N 54°18' W 130°21'0 0.0
2014-Aug-01 13:33N 54°18' W 130°21'0 0.0
2014-Aug-01 12:33N 54°18' W 130°21'0 0.0
2014-Aug-01 11:33N 54°18' W 130°21'0 0.0
2014-Aug-01 10:34N 54°18' W 130°21'0 0.0
2014-Aug-01 09:33N 54°18' W 130°21'0 0.0
2014-Aug-01 08:33N 54°18' W 130°21'0 0.0
2014-Aug-01 07:33N 54°18' W 130°21'0 0.0
2014-Aug-01 06:33N 54°18' W 130°21'0 0.0
2014-Aug-01 05:33N 54°18' W 130°21'0 0.0
2014-Aug-01 04:33N 54°18' W 130°21'0 0.0
2014-Aug-01 03:33N 54°18' W 130°21'0 0.0
2014-Aug-01 02:33N 54°18' W 130°21'0 0.0
2014-Aug-01 01:33N 54°18' W 130°21'0 0.0
2014-Aug-01 00:33N 54°18' W 130°21'0 0.0
2014-Jul-31 23:33N 54°18' W 130°21'0 0.0
2014-Jul-31 22:34N 54°18' W 130°21'0 0.0
2014-Jul-31 21:33N 54°18' W 130°21'0 0.0
2014-Jul-31 20:33N 54°18' W 130°21'0 0.0
2014-Jul-31 19:33N 54°18' W 130°21'0 0.0
2014-Jul-31 18:33N 54°18' W 130°21'2 2.0
2014-Jul-31 17:33N 54°19' W 130°19'0 0.1
2014-Jul-31 16:33N 54°19' W 130°19'2 2.1
2014-Jul-31 15:33N 54°18' W 130°21'0 0.0
2014-Jul-31 14:33N 54°18' W 130°21'0 0.0
2014-Jul-31 13:33N 54°18' W 130°21'0 0.0
2014-Jul-31 12:34N 54°18' W 130°21'0 0.0
2014-Jul-31 11:33N 54°18' W 130°21'0 0.0
2014-Jul-31 10:33N 54°18' W 130°21'0 0.0
2014-Jul-31 09:33N 54°18' W 130°21'0 0.0
2014-Jul-31 08:33N 54°18' W 130°21'0 0.0
2014-Jul-31 07:34N 54°18' W 130°21'0 0.0
2014-Jul-31 06:33N 54°18' W 130°21'0 0.0
2014-Jul-31 05:33N 54°18' W 130°21'0 0.0
2014-Jul-31 04:33N 54°18' W 130°21'0 0.0
2014-Jul-31 03:33N 54°18' W 130°21'0 0.0
2014-Jul-31 02:33N 54°18' W 130°21'0 0.0
2014-Jul-31 01:33N 54°18' W 130°21'0 0.0
2014-Jul-31 00:34N 54°18' W 130°21'0 0.0
2014-Jul-30 23:33N 54°18' W 130°21'0 0.0
2014-Jul-30 22:33N 54°18' W 130°21'0 0.0
2014-Jul-30 21:33N 54°18' W 130°21'0 0.0
2014-Jul-30 20:33N 54°18' W 130°21'0 0.0
2014-Jul-30 19:33N 54°18' W 130°21'0 0.0
2014-Jul-30 18:33N 54°18' W 130°21'0 0.0
2014-Jul-30 03:32N 54°18' W 130°21'0 0.0
2014-Jul-30 02:33N 54°18' W 130°21'0 0.0
2014-Jul-30 01:33N 54°18' W 130°21'0 0.0
2014-Jul-30 00:33N 54°18' W 130°21'0 0.0
2014-Jul-29 23:34N 54°18' W 130°21'0 0.0
2014-Jul-29 18:11N 54°18' W 130°21'0 0.0
2014-Jul-29 17:33N 54°18' W 130°21'0 0.0
2014-Jul-29 16:33N 54°18' W 130°21'0 0.0
2014-Jul-29 15:33N 54°18' W 130°21'0 0.0
2014-Jul-29 14:33N 54°18' W 130°21'0 0.3
2014-Jul-29 13:33N 54°17' W 130°22'1913.4
2014-Jul-29 12:07N 54°19' W 130°55'611.4
2014-Jul-29 11:33N 54°19' W 130°44'2 1.9
2014-Jul-29 10:33N 54°18' W 130°41'6 5.9
2014-Jul-29 09:32N 54°12' W 130°46'0 0.0
2014-Jul-29 08:33N 54°12' W 130°46'0 0.0
2014-Jul-29 07:33N 54°12' W 130°46'6 2.9
2014-Jul-29 05:33N 54°16' W 130°38'10 9.9
2014-Jul-29 04:34N 54°18' W 130°21'0 0.0
2014-Jul-29 03:34N 54°18' W 130°21'0 0.0
2014-Jul-29 02:34N 54°18' W 130°21'0 0.0
2014-Jul-29 01:34N 54°18' W 130°21'0 0.0
2014-Jul-28 19:31N 54°18' W 130°21'0 0.0
2014-Jul-28 18:33N 54°18' W 130°21'0 0.0
2014-Jul-28 17:33N 54°18' W 130°21'0 0.0
2014-Jul-28 16:33N 54°18' W 130°21'0 0.0
2014-Jul-28 15:33N 54°18' W 130°21'0 0.0
2014-Jul-27 20:33N 54°18' W 130°21'0 0.0
2014-Jul-27 19:34N 54°18' W 130°21'0 0.0
2014-Jul-27 18:33N 54°18' W 130°21'0 0.0
2014-Jul-27 17:33N 54°18' W 130°21'0 0.0
2014-Jul-27 16:34N 54°18' W 130°21'0 0.0
2014-Jul-27 15:34N 54°18' W 130°21'0 0.0
2014-Jul-27 14:33N 54°18' W 130°21'0 0.0
2014-Jul-26 03:30N 54°18' W 130°21'0 0.0
2014-Jul-25 22:33N 54°18' W 130°21'0 0.0
2014-Jul-25 21:34N 54°18' W 130°21'0 0.0
2014-Jul-25 20:33N 54°18' W 130°21'0 0.0
2014-Jul-25 19:33N 54°18' W 130°21'0 0.0
2014-Jul-25 18:33N 54°18' W 130°21'0 0.0
2014-Jul-25 17:34N 54°18' W 130°21'0 0.0
2014-Jul-25 16:34N 54°18' W 130°21'0 0.0
2014-Jul-25 15:34N 54°18' W 130°21'0 0.0
2014-Jul-25 14:34N 54°18' W 130°21'0 0.0
2014-Jul-25 13:34N 54°18' W 130°21'0 0.0
2014-Jul-25 12:34N 54°18' W 130°21'0 0.0
2014-Jul-25 11:33N 54°18' W 130°21'0 0.0
2014-Jul-25 10:34N 54°18' W 130°21'0 0.0
2014-Jul-25 09:34N 54°18' W 130°21'0 0.0
2014-Jul-25 08:33N 54°18' W 130°21'0 0.0
2014-Jul-25 07:34N 54°18' W 130°21'0 0.0
2014-Jul-25 06:33N 54°18' W 130°21'0 0.0
2014-Jul-25 05:34N 54°18' W 130°21'0 0.0
2014-Jul-25 04:34N 54°18' W 130°21'0 0.0
2014-Jul-25 03:33N 54°18' W 130°21'0 0.0
2014-Jul-25 02:33N 54°18' W 130°21'0 0.0
2014-Jul-25 01:33N 54°18' W 130°21'0 0.0
2014-Jul-25 00:34N 54°18' W 130°21'0 0.0
2014-Jul-24 23:34N 54°18' W 130°21'0 0.0
2014-Jul-24 22:34N 54°18' W 130°21'0 0.0
2014-Jul-24 21:33N 54°18' W 130°21'0 0.0
2014-Jul-24 20:33N 54°18' W 130°21'0 0.0
2014-Jul-24 19:34N 54°18' W 130°21'0 0.0
2014-Jul-24 18:34N 54°18' W 130°21'0 0.0
2014-Jul-24 17:34N 54°18' W 130°21'0 0.0
2014-Jul-24 16:34N 54°18' W 130°21'0 0.0
2014-Jul-24 15:34N 54°18' W 130°21'0 0.0
2014-Jul-24 14:34N 54°18' W 130°21'0 0.0
2014-Jul-24 13:33N 54°18' W 130°21'0 0.0
2014-Jul-24 12:34N 54°18' W 130°21'0 0.0
2014-Jul-24 11:34N 54°18' W 130°21'0 0.0
2014-Jul-24 10:33N 54°18' W 130°21'0 0.0
2014-Jul-24 09:34N 54°18' W 130°21'0 0.0
2014-Jul-24 08:34N 54°18' W 130°21'0 0.0
2014-Jul-24 07:34N 54°18' W 130°21'0 0.0
2014-Jul-24 06:33N 54°18' W 130°21'0 0.0
2014-Jul-24 05:34N 54°18' W 130°21'0 0.0
2014-Jul-24 04:33N 54°18' W 130°21'0 0.0
2014-Jul-24 03:33N 54°18' W 130°21'0 0.0
2014-Jul-24 02:33N 54°18' W 130°21'0 0.0
2014-Jul-24 01:33N 54°18' W 130°21'0 0.0
2014-Jul-24 00:34N 54°18' W 130°21'0 0.0
2014-Jul-23 23:34N 54°18' W 130°21'0 0.0
2014-Jul-23 22:33N 54°18' W 130°21'0 0.0
2014-Jul-23 21:34N 54°18' W 130°21'0 0.0
2014-Jul-23 20:33N 54°18' W 130°21'0 0.0
2014-Jul-23 19:34N 54°18' W 130°21'0 0.0
2014-Jul-23 18:34N 54°18' W 130°21'0 0.0
2014-Jul-23 17:33N 54°18' W 130°21'0 0.0
2014-Jul-23 16:34N 54°18' W 130°21'0 0.0
2014-Jul-23 15:33N 54°18' W 130°21'0 0.0
2014-Jul-23 14:34N 54°18' W 130°21'0 0.0
2014-Jul-23 13:33N 54°18' W 130°21'0 0.0
2014-Jul-23 12:34N 54°18' W 130°21'0 0.0
2014-Jul-23 11:33N 54°18' W 130°21'0 0.0
2014-Jul-23 10:33N 54°18' W 130°21'0 0.0
2014-Jul-23 09:33N 54°18' W 130°21'0 0.0
2014-Jul-23 08:34N 54°18' W 130°21'0 0.0
2014-Jul-23 07:34N 54°18' W 130°21'0 0.0
2014-Jul-23 06:33N 54°18' W 130°21'0 0.0
2014-Jul-23 05:34N 54°18' W 130°21'0 0.0
2014-Jul-23 04:33N 54°18' W 130°21'0 0.0
2014-Jul-23 03:34N 54°18' W 130°21'0 0.0
2014-Jul-23 02:34N 54°18' W 130°21'  

Dump ship's entire track history